T³ - TableTop Tournaments
Welcome Guest. Please log in or register.
  

Login with nickname/ID and password (Lost password?).
AdvertMiniatur-Bemalung (MB-Studio)
Follow us:facebooktwitterrss | supportContact

Tournament Overview

Register your own tournamentTo the map

Please select a game system:


"Fantasy Battles: The 9th Age"-tournaments in the next months:

DateTournamentLocationSeats
February 2019
2019-02-239th WAAAGH #5F75006 Pariscanceled
2019-02-23Qualifs IR T9A NordF59650 Villeneuve D'ascq30/30
2019-02-23MAPM 3 Spieler Teamturnier 2019D93059 Regensburg30/36
2019-02-231. 9th Age Kassel - CupD34134 Kassel16/14
2019-02-23Butchers Euregionals(hot)NL6227 Maastricht14/30
2019-02-24Bloody Sunday IXF69007 Lyon27/14
2019-02-24TROLLS GAMES 2019 - 9th AGEF59850 Nieppecanceled
March 2019
2019-03-02T9A Masters GermanyD32049 Herford18/24
2019-03-03Tournoi Bash'ground(support)F67550 Vendenheim20/20
2019-03-09Luxembourg Bash Master 9th age IIIL1469 Luxembourg94/100
2019-03-09The 9th Worms IXD67547 Worms19/20
2019-03-16La Banniere de l'Ombre - ASPTT - T9A 2019F49300 Cholet49/40
2019-03-16Fratzenknacken Vol. IV(support)D29410 Salzwedel45/60
2019-03-16Refugium 9th Age, 01/2019(group)D78194 Immendingen12/24
2019-03-16Refugium 9th Age - jetzt doppelt so lang(group)D78194 Immendingencanceled
2019-03-162e AMICALES DE CHARTRESF28000 Chartres1/12
2019-03-17Tower Conquest 9th Age 3ème édition (4500pts)B7800 Athcanceled
2019-03-17Tower Conquest Minus et CortexB7800 Ath14/42
2019-03-172. Kampf im Keller(rate)(support)A8010 Graz17/18
2019-03-239th WAAAGH #6F75006 Paris23/24
2019-03-2312. Karl-Franz Cup (The 9th Age)D85247 Schwabhausen14/32
2019-03-23Tabletop Südwest 9th Age "Frühjahrsturnier" 2019D66740 Saarlouis14/18
2019-03-23Journée Training TripletteF59167 Lallaing0/36
2019-03-24La lutte du Loup AlphaF54510 Tomblaine22/30
2019-03-30Le Petit Tournoi des Tueurs d'OrksF24660 Coulounieix-Chamiers23/72
2019-03-31Belgian Mercenaries Duo Challenge 2 @CharleroiB6000 Charleroi9/20
April 2019
2019-04-06Mit Schwert und Schild #2D63743 Aschaffenburg11/18
2019-04-06MAPM 5 Spieler Teamturnier 2019D93059 Regensburg6/60
2019-04-07Spielen in Berlin XXXVI - The 9th Age VII(support)D13629 Berlin7/30
2019-04-139th-Givors en Jeu en Doublette(group)F69700 Givors21/40
2019-04-13Doublette d'Avril des HalflingsF59370 Mons-En-Baroeul10/32
2019-04-13I T.T.C.R: Tablepott GemoscheD45888 Gelsenkirchen18/12
2019-04-13Funky Spring Bash 19CH1110 Morges22/30
2019-04-13T9A @ Vienna Tabletop Masters 2019 (Doppelturnier / Double)A1140 Vienna3/32
2019-04-20Qualif ETC France 2019F67230 Westhouse71/81
2019-04-26WTC Open 2019 by TG PLAY! - Opening EventD32051 Herford550
2019-04-27WTC Open 2019 by TG PLAY! - Main EventD32051 Herford550
2019-04-27La Simplette du Necromant 2F33140 Villenave D'ornon27/32
2019-04-28Aigle de printempsF25220 Chalèze10/18
2019-04-28The 9th Age Battle of Ulm - Summer CampainD89075 Ulm5/14
May 2019
2019-05-0518th Conflict T9AB3201 Gelrode27/30
2019-05-18The 9th Worms XD67547 Worms4/20
2019-05-18T9A ÖMS 2019A1150 Wien12/32
2019-05-25Inter-Régions The Ninth Age 2019F59136 Wavrin64/192
2019-05-2513. Karl-Franz Cup (The 9th Age)D85247 Schwabhausen7/32
2019-05-26Battering Rams 2vs2 Summerbattles II(support)CH8207 Schaffhausen3/16
2019-05-26Old World 9thage Saison 4B1000 Bruxelles6/10
June 2019
2019-06-01Tabletop Südwest "Saarlouis spielt" 2019D66740 Saarlouis6/18
2019-06-08T9A Masters Germany IID32049 Herford6/24
2019-06-081. 9th Age Nürnberg CupD90471 Nürnberg14/20
2019-06-22Bode Team Bashen Runde 3D06526 Sangerhausen14/48
2019-06-29Bienvenus au Mootland XF38200 Vienne69/48
2019-06-30Belgian Mercenaries Challenge 2 - 9th Age goes to @HappyDésB7000 Mons5/30
August 2019
2019-08-10The 9th Worms XID67547 Worms2/20
September 2019
2019-09-07Tabletop Südwest "Sommer-Cup" 2019D66740 Saarlouis3/18
2019-09-08Doublette T9A de rentréeF59370 Lille1/32
2019-09-28Challenge XIV - Fantasy Battles: The Ninth AgeB8800 Roeselare5/50
2019-09-29The 9th Age Battle of Ulm - Winter CampainD89075 Ulm3/14
October 2019
2019-10-19MAPM Single 2019D93059 Regensburg8/60
2019-10-20Aigle d'automneF25220 Chalèze0/18
2019-10-26La joute du DOC 2019F68720 Zillisheim5/80
2019-10-26Fratzenknacken Vol. V(support)D29410 Salzwedel10/60
November 2019
2019-11-01T9A Masters Germany IIID32049 Herford4/48
2019-11-16The 9th Worms XIID67547 Worms2/20
2019-11-23Myreille Strategic Tournament IVF59650 Villeneuve D'ascq1/32
December 2019
2019-12-14Tabletop Südwest "Jahresabschluss-Turnier" 2019D66740 Saarlouis2/18
Calendar
Info: The date of each tournament can be download as an ICS-file by clicking on the date. In addition we offer a complete tournament calendar: ICS (iCal: webcal). What is ICS?

You can subscribe to the calendar with an ICS-compatible software (like Mozilla/Calendar or iCal).

past "Fantasy Battles: The 9th Age"-Tournaments (max. the last 20):

DateTournamentLocationSeats
2019-02-17REX LUPIF54510 Tomblaine8/10
2019-02-17Une journée chez les sonsF68720 Zillisheim22/22
2019-02-17Tournoi du Grimoire XIIIF31000 Toulouse Cedex 444/48
2019-02-16PPB Mosch Hits Vol. 6D53757 Sankt Augustin12/14
2019-02-16Benelux Cup 2019L1490 Luxembourg21/32
2019-02-10Old World 9thage Saison 3B1000 Bruxelles8/10
2019-02-10Bode Bashen Runde 12.5D06526 Sangerhausen26/48
2019-02-10CZE - South Cup - 3x4500 T9A 9-10 February 2019CZ392 01 Sobeslav42
2019-02-03Le Trône de Wavrin - BF Le 9e ÂgeF59136 Wavrin24/40
2019-02-02Alsterkloppen goes 9th age VID22761 Hamburg26/40
2019-01-27Myreille Strategic Team IIIF59650 Villeneuve D'ascq56/56
2019-01-27BELLUM LACUM IIIF74140 Douvaine48/80
2019-01-27POLAND MASTER SERIESPL32-087 Zielonki0/108
2019-01-269th WAAAGH #4F75006 Paris20/24
2019-01-19Le tournoi du Temple #1F63000 Clermont-Ferrand8/10
2019-01-19Pink Horde Clubkampioenschap T9AB8800 Roeselare11/24
2019-01-13BeLaMa - Betreute Landesmeisterschaften 2019D52372 Kreuzau96/104
2019-01-13New Years Tournament Hired GunsNL5401 Uden30
2019-01-06Hasard Ludique - Ninth Age 5B7000 Mons18/18
2019-01-06ÖTT 2019 - Österreichisches Team TurnierA9020 Klagenfurt am Wörthersee24/42
Show complete list


Tabletops: A Call to Arms: Star Fleet | A Fantastic Saga | A Song of Ice & Fire | Adeptus Titanicus | Aeronautica Imperialis | Âge des Escarmouches | Alkemy | Anima Tactics | Arcane Legions | Arena Deathmatch | Arena Rex | Aristeia! | Armageddon (Magora etc.) | Armalion | Armati | Astrahys | AT-43 | Babylon 5 | Batman Miniature Game | Battlefield Evolution | Battlefleet Gothic | BattleTech: Alpha Strike | Behind Omaha | Beyond the Gates of Antares | Blackwater Gulch | Blitz Bowl | Blitzkrieg Commander | Blood & Plunder | Blood Bowl | Blood Red Skies | Blücher | Bolt Action | Briskars | Bushido | By Fire and Sword | Carnevale | Celtos | Chronopia | Clan War | Clash of Empires | Classic BattleTech | Confrontation 3/3.5 | Confrontation: AoR | D&D Attack Wing | Dark Age | Darklands | De Bellis Antiquitatis | De Bellis Magistrorum Militum | De Bellis Multitudinis | Dead Man's Hand | Deadzone | DeepWars | Demonworld | Drakerys | Dreadball | Dropfleet Commander | Dropzone Commander | Dust 1947 | Dust Tactics Battlefield | Dust Warfare | Dystopian Legions | Dystopian Wars | Eden | Epic Armageddon | Ex Illis | Fallout: Wasteland Warfare | Fantasy Battles: The 9th Age | Fantasy Warriors | Fearless | Field of Glory | Field of Glory - Ancient and Medieval | Field of Glory - Napoleonic | Field of Glory - Renaissance | Fire and Fury | Firestorm Armada | Firestorm Planetfall | Flames of War | Fleet Commander | Flintloque | Force on Force | Freebooter's Fate | Frères d'Armes | Frostgrave | Furie | Gangs of Mega-City One | Gaslands | Gear Krieg | Godslayer | Goetterdaemmerung | Golgotha | Gorkamorka | Guild Ball | Hail Caesar | Heavy Gear Blitz | Hell Dorado | Historical Tabletops (WRG-6th) | Hordes of the Things | Impetus | Infinity | Jovian Chronicles | Judgement | Kings of War | Kugelhagel | L'Art de la Guerre | Le Retour des Dieux | Legends of the High Seas | Legends of the Old West | Malifaux | Man O'War | Mars Attacks - The Miniatures Game | Marvel Universe Miniature Game | MechWarrior: Dark Age | Metropolis | Middle-earth Strategy Battle Game | Monsterpocalypse | Mordheim | Mortebrume | Mortem et Gloriam | Mutant Chronicles Miniature Game | Mythic Battles: Pantheon | Necromunda | Nemesis | NetEpic | Okko, Era of the Asagiri | Operation World War Two | Pirates of the Spanish Main | Pulp Alley | Pulp City | Relic Knights | Rezolution | Rumbleslam | Runewars Miniatures Game | SAGA | Schicksalspfade | Secrets of the Third Reich | Shadow War: Armageddon | ShadowSea | Sharp Practice | SMOG, The Thirteenth Hour | Space Hulk | Star Trek: Attack Wing | Star Wars Miniatures | Star Wars: Armada | Star Wars: Imperial Assault | Star Wars: Legion | Star Wars: X-Wing Miniatures Game | Starship Troopers | Steinhagel | Summoners | Tabletop Convention | Tanks | Team Yankee | The Uncharted Seas | The Walking Dead: All Out War | Tomorrow's War | Urban War | Victory at Sea | War in the Middle Ages | War of the Ring | Warcanto | WarGods | Warhammer 30K: The Horus Heresy | Warhammer 40K | Warhammer 40K: Kill Team | Warhammer Age of Sigmar | Warhammer Age of Sigmar: Skirmish | Warhammer Ancient Battles | Warhammer Fantasy Battles | Warhammer Underworlds | Warlord | Warmachine/Hordes | Warmaster | Warmaster Ancients | Warthrone | Warzone | Wild West Exodus | Wings of Glory | Wolsung SSG | World of Warcraft Miniatures Game | Wrath of Kings


©2004-2019. T³ is operated by Althaus.IT.